createdAt,value
2023-02-27T00:00:19.917Z,5.40
2023-02-27T00:01:19.923Z,5.88
2023-02-27T00:02:19.978Z,4.81
2023-02-27T00:03:19.918Z,5.30
2023-02-27T00:04:19.957Z,4.98
2023-02-27T00:05:19.966Z,4.84
2023-02-27T00:07:19.961Z,5.48
2023-02-27T00:08:19.918Z,5.86
2023-02-27T00:09:19.971Z,5.37
2023-02-27T00:10:19.995Z,5.10
2023-02-27T00:11:19.969Z,5.17
2023-02-27T00:12:19.931Z,4.60
2023-02-27T00:13:19.952Z,5.61
2023-02-27T00:14:19.981Z,5.09
2023-02-27T00:15:19.954Z,4.63
2023-02-27T00:16:20.008Z,5.45
2023-02-27T00:17:19.959Z,5.03
2023-02-27T00:18:19.974Z,4.99
2023-02-27T00:19:20.042Z,5.23
2023-02-27T00:20:20.012Z,5.19
2023-02-27T00:21:19.966Z,4.83
2023-02-27T00:22:19.970Z,5.57
2023-02-27T00:23:20.005Z,5.84
2023-02-27T00:24:20.011Z,5.45
2023-02-27T00:25:19.972Z,5.54
2023-02-27T00:26:19.984Z,5.09
2023-02-27T00:27:19.979Z,5.47
2023-02-27T00:28:20.042Z,4.92
2023-02-27T00:29:19.977Z,5.11
2023-02-27T00:30:19.985Z,5.19
2023-02-27T00:31:20.062Z,5.45
2023-02-27T00:33:20.046Z,4.95
2023-02-27T00:34:19.990Z,4.53
2023-02-27T00:35:19.994Z,5.51
2023-02-27T00:36:20.035Z,4.74
2023-02-27T00:37:20.029Z,5.06
2023-02-27T00:38:20.075Z,4.60
2023-02-27T00:40:20.014Z,5.24
2023-02-27T00:41:20.033Z,4.94
2023-02-27T00:42:20.015Z,5.16
2023-02-27T00:43:20.003Z,5.69
2023-02-27T00:44:20.005Z,5.69
2023-02-27T00:45:20.021Z,5.07
2023-02-27T00:46:20.101Z,5.33
2023-02-27T00:47:20.062Z,5.21
2023-02-27T00:48:20.056Z,5.39
2023-02-27T00:49:20.085Z,5.78
2023-02-27T00:50:20.051Z,5.33
2023-02-27T00:51:20.058Z,5.39
2023-02-27T00:52:20.050Z,5.33
2023-02-27T00:53:20.024Z,5.16
2023-02-27T00:54:20.040Z,5.65
2023-02-27T00:55:20.076Z,4.87
2023-02-27T00:56:20.124Z,4.72
2023-02-27T00:57:20.102Z,4.87
2023-02-27T00:58:20.046Z,5.56
2023-02-27T00:59:20.080Z,5.73
2023-02-27T01:00:20.050Z,5.03
2023-02-27T01:01:20.089Z,5.30
2023-02-27T01:02:20.166Z,5.22
2023-02-27T01:03:20.053Z,5.45
2023-02-27T01:04:20.058Z,5.26
2023-02-27T01:05:20.166Z,5.66
2023-02-27T01:07:20.110Z,5.31
2023-02-27T01:08:20.067Z,5.68
2023-02-27T01:09:20.099Z,5.74
2023-02-27T01:10:20.077Z,6.21
2023-02-27T01:11:20.118Z,5.93
2023-02-27T01:12:20.144Z,5.33
2023-02-27T01:13:20.142Z,5.53
2023-02-27T01:14:20.087Z,6.14
2023-02-27T01:15:20.174Z,6.00
2023-02-27T01:16:20.132Z,5.48
2023-02-27T01:17:20.082Z,6.64
2023-02-27T01:18:20.109Z,5.29
2023-02-27T01:19:20.258Z,5.94
2023-02-27T01:20:20.092Z,5.48
2023-02-27T01:22:20.148Z,5.51
2023-02-27T01:23:20.109Z,5.41
2023-02-27T01:24:20.170Z,6.07
2023-02-27T01:25:20.131Z,5.15
2023-02-27T01:26:20.159Z,5.80
2023-02-27T01:27:20.173Z,6.03
2023-02-27T01:28:20.122Z,6.00
2023-02-27T01:29:20.162Z,6.01
2023-02-27T01:30:20.156Z,5.74
2023-02-27T01:31:20.223Z,5.67
2023-02-27T01:32:20.310Z,5.51
2023-02-27T01:33:20.166Z,5.64
2023-02-27T01:34:20.191Z,6.05
2023-02-27T01:35:20.182Z,6.01
2023-02-27T01:36:20.144Z,5.90
2023-02-27T01:37:20.153Z,5.19
2023-02-27T01:38:20.145Z,5.81
2023-02-27T01:39:20.201Z,5.87
2023-02-27T01:40:20.179Z,6.25
2023-02-27T01:41:20.231Z,5.90
2023-02-27T01:42:20.169Z,5.92
2023-02-27T01:44:20.231Z,5.61
2023-02-27T01:45:20.168Z,5.91
2023-02-27T01:46:20.234Z,5.85
2023-02-27T01:47:20.231Z,5.90
2023-02-27T01:48:20.208Z,5.89
2023-02-27T01:49:20.231Z,5.59
2023-02-27T01:50:20.177Z,5.93
2023-02-27T01:51:20.229Z,5.32
2023-02-27T01:52:20.165Z,5.66
2023-02-27T01:53:20.181Z,5.64
2023-02-27T01:54:20.186Z,5.83
2023-02-27T01:55:20.184Z,6.38
2023-02-27T01:56:20.247Z,5.57
2023-02-27T01:57:20.238Z,6.02
2023-02-27T01:59:20.236Z,5.70
2023-02-27T02:00:20.273Z,5.33
2023-02-27T02:01:20.318Z,6.07
2023-02-27T02:02:20.286Z,5.69
2023-02-27T02:03:20.239Z,6.21
2023-02-27T02:04:20.219Z,6.38
2023-02-27T02:05:20.223Z,5.98
2023-02-27T02:06:20.197Z,5.43
2023-02-27T02:07:20.218Z,5.18
2023-02-27T02:08:20.265Z,6.02
2023-02-27T02:09:20.256Z,5.48
2023-02-27T02:10:20.261Z,6.76
2023-02-27T02:11:20.244Z,6.11
2023-02-27T02:12:20.240Z,5.08
2023-02-27T02:14:20.242Z,5.46
2023-02-27T02:15:20.279Z,6.30
2023-02-27T02:16:20.272Z,5.77
2023-02-27T02:17:20.253Z,5.85
2023-02-27T02:18:20.295Z,5.80
2023-02-27T02:19:20.247Z,5.65
2023-02-27T02:20:20.239Z,5.38
2023-02-27T02:21:20.253Z,6.00
2023-02-27T02:22:20.277Z,4.78
2023-02-27T02:23:20.266Z,5.60
2023-02-27T02:24:20.285Z,5.36
2023-02-27T02:25:20.248Z,5.66
2023-02-27T02:26:20.258Z,5.66
2023-02-27T02:27:20.293Z,5.54
2023-02-27T02:28:20.313Z,5.11
2023-02-27T02:29:20.295Z,5.57
2023-02-27T02:30:20.303Z,5.78
2023-02-27T02:31:20.384Z,5.45
2023-02-27T02:32:20.343Z,5.37
2023-02-27T02:33:20.297Z,6.35
2023-02-27T02:34:20.338Z,6.02
2023-02-27T02:35:20.275Z,5.65
2023-02-27T02:36:20.284Z,5.99
2023-02-27T02:37:20.330Z,5.83
2023-02-27T02:38:20.338Z,5.06
2023-02-27T02:39:20.286Z,5.59
2023-02-27T02:40:20.347Z,5.72
2023-02-27T02:42:20.341Z,5.16
2023-02-27T02:43:20.325Z,5.22
2023-02-27T02:44:20.348Z,5.69
2023-02-27T02:45:20.317Z,5.28
2023-02-27T02:46:20.364Z,5.71
2023-02-27T02:47:20.315Z,5.94
2023-02-27T02:48:20.327Z,5.69
2023-02-27T02:49:20.314Z,5.68
2023-02-27T02:50:20.318Z,5.84
2023-02-27T02:51:20.337Z,6.11
2023-02-27T02:52:20.339Z,5.90
2023-02-27T02:53:20.350Z,5.69
2023-02-27T02:54:20.316Z,5.58
2023-02-27T02:55:20.363Z,5.97
2023-02-27T02:56:20.316Z,6.12
2023-02-27T02:57:20.339Z,5.57
2023-02-27T02:58:20.355Z,5.84
2023-02-27T02:59:20.344Z,5.51
2023-02-27T03:00:20.341Z,5.54
2023-02-27T03:01:20.366Z,5.17
2023-02-27T03:02:20.332Z,5.03
2023-02-27T03:03:20.389Z,5.79
2023-02-27T03:04:20.400Z,5.56
2023-02-27T03:05:20.399Z,6.07
2023-02-27T03:07:20.447Z,5.13
2023-02-27T03:08:20.387Z,5.73
2023-02-27T03:10:20.361Z,6.00
2023-02-27T03:11:20.414Z,5.46
2023-02-27T03:12:20.414Z,5.65
2023-02-27T03:13:20.375Z,5.55
2023-02-27T03:14:20.383Z,5.62
2023-02-27T03:15:20.363Z,5.93
2023-02-27T03:16:20.413Z,5.65
2023-02-27T03:17:20.419Z,5.34
2023-02-27T03:18:20.433Z,6.13
2023-02-27T03:19:20.383Z,5.68
2023-02-27T03:20:20.582Z,6.30
2023-02-27T03:21:20.449Z,5.81
2023-02-27T03:22:20.439Z,5.48
2023-02-27T03:23:20.412Z,5.65
2023-02-27T03:24:20.450Z,6.08
2023-02-27T03:25:20.430Z,5.49
2023-02-27T03:26:20.448Z,5.91
2023-02-27T03:27:20.446Z,5.63
2023-02-27T03:28:20.455Z,5.86
2023-02-27T03:29:20.475Z,6.30
2023-02-27T03:30:20.407Z,6.08
2023-02-27T03:31:20.523Z,5.21
2023-02-27T03:32:20.415Z,5.68
2023-02-27T03:33:20.405Z,5.48
2023-02-27T03:34:20.406Z,4.87
2023-02-27T03:35:20.430Z,5.35
2023-02-27T03:36:20.408Z,5.53
2023-02-27T03:37:20.444Z,6.25
2023-02-27T03:38:20.443Z,5.48
2023-02-27T03:39:20.474Z,5.88
2023-02-27T03:40:20.480Z,5.41
2023-02-27T03:41:20.468Z,5.54
2023-02-27T03:42:20.427Z,6.24
2023-02-27T03:43:20.473Z,5.80
2023-02-27T03:44:20.476Z,5.91
2023-02-27T03:45:20.436Z,5.76
2023-02-27T03:46:20.471Z,5.18
2023-02-27T03:47:20.443Z,5.52
2023-02-27T03:48:20.455Z,5.40
2023-02-27T03:49:20.484Z,5.61
2023-02-27T03:50:20.485Z,5.51
2023-02-27T03:51:20.460Z,5.15
2023-02-27T03:52:20.516Z,5.30
2023-02-27T03:53:20.479Z,5.31
2023-02-27T03:54:20.463Z,5.74
2023-02-27T03:55:20.477Z,5.53
2023-02-27T03:56:20.452Z,5.20
2023-02-27T03:57:20.524Z,4.68
2023-02-27T03:58:20.488Z,5.61
2023-02-27T03:59:20.562Z,6.26
2023-02-27T04:00:20.502Z,5.47
2023-02-27T04:01:20.495Z,5.05
2023-02-27T04:02:20.465Z,5.43
2023-02-27T04:03:20.494Z,5.21
2023-02-27T04:04:20.553Z,6.19
2023-02-27T04:05:20.519Z,5.61
2023-02-27T04:06:20.503Z,5.11
2023-02-27T04:07:20.541Z,4.96
2023-02-27T04:08:20.563Z,5.10
2023-02-27T04:09:20.573Z,5.43
2023-02-27T04:10:20.521Z,5.63
2023-02-27T04:11:20.551Z,5.34
2023-02-27T04:12:20.499Z,5.26
2023-02-27T04:13:20.564Z,5.62
2023-02-27T04:15:20.546Z,5.49
2023-02-27T04:17:20.555Z,4.80
2023-02-27T04:18:20.566Z,5.15
2023-02-27T04:19:20.557Z,5.48
2023-02-27T04:20:20.537Z,4.60
2023-02-27T04:21:20.569Z,5.03
2023-02-27T04:22:20.552Z,5.56
2023-02-27T04:23:20.546Z,4.96
2023-02-27T04:24:20.560Z,5.37
2023-02-27T04:26:20.587Z,5.42
2023-02-27T04:28:20.561Z,4.66
2023-02-27T04:29:20.557Z,5.35
2023-02-27T04:30:20.635Z,4.98
2023-02-27T04:31:20.634Z,4.55
2023-02-27T04:32:20.698Z,4.49
2023-02-27T04:33:20.567Z,4.88
2023-02-27T04:34:20.568Z,5.01
2023-02-27T04:35:20.607Z,5.27
2023-02-27T04:36:20.612Z,4.78
2023-02-27T04:37:20.580Z,5.17
2023-02-27T04:38:20.553Z,5.44
2023-02-27T04:39:20.611Z,5.11
2023-02-27T04:40:20.563Z,5.40
2023-02-27T04:41:20.627Z,5.20
2023-02-27T04:42:20.627Z,5.24
2023-02-27T04:43:20.583Z,4.87
2023-02-27T04:44:20.584Z,5.29
2023-02-27T04:45:20.586Z,5.45
2023-02-27T04:46:20.640Z,4.96
2023-02-27T04:47:20.631Z,5.56
2023-02-27T04:48:20.694Z,4.91
2023-02-27T04:49:20.607Z,4.69
2023-02-27T04:50:20.651Z,4.97
2023-02-27T04:51:20.653Z,5.32
2023-02-27T04:52:20.643Z,4.83
2023-02-27T04:53:20.674Z,5.81
2023-02-27T04:54:20.675Z,5.57
2023-02-27T04:55:20.628Z,5.56
2023-02-27T04:56:20.625Z,6.03
2023-02-27T04:57:20.610Z,5.30
2023-02-27T04:58:20.605Z,5.68
2023-02-27T04:59:20.656Z,5.08
2023-02-27T05:01:20.637Z,4.90
2023-02-27T05:02:20.748Z,5.13
2023-02-27T05:03:20.616Z,5.68
2023-02-27T05:04:20.640Z,5.70
2023-02-27T05:05:20.681Z,5.95
2023-02-27T05:06:20.656Z,5.93
2023-02-27T05:08:20.705Z,5.96
2023-02-27T05:09:20.690Z,5.64
2023-02-27T05:10:20.692Z,5.75
2023-02-27T05:11:20.676Z,5.75
2023-02-27T05:12:20.693Z,6.24
2023-02-27T05:13:20.676Z,5.59
2023-02-27T05:15:20.657Z,5.22
2023-02-27T05:16:20.693Z,5.03
2023-02-27T05:17:20.666Z,5.51
2023-02-27T05:18:20.689Z,6.17
2023-02-27T05:19:20.768Z,5.27
2023-02-27T05:20:20.696Z,5.17
2023-02-27T05:21:20.712Z,5.17
2023-02-27T05:22:20.702Z,6.13
2023-02-27T05:23:20.698Z,4.97
2023-02-27T05:24:20.664Z,5.24
2023-02-27T05:25:20.723Z,6.03
2023-02-27T05:26:20.705Z,6.04
2023-02-27T05:27:20.718Z,5.72
2023-02-27T05:28:20.723Z,5.84
2023-02-27T05:29:20.703Z,6.07
2023-02-27T05:30:20.683Z,5.50
2023-02-27T05:31:20.777Z,5.59
2023-02-27T05:32:20.850Z,5.36
2023-02-27T05:33:20.699Z,5.26
2023-02-27T05:34:20.715Z,5.71
2023-02-27T05:35:20.740Z,5.65
2023-02-27T05:36:20.703Z,5.79
2023-02-27T05:37:20.720Z,6.30
2023-02-27T05:38:20.764Z,6.41
2023-02-27T05:39:20.999Z,5.85
2023-02-27T05:40:20.752Z,5.04
2023-02-27T05:41:20.745Z,5.50
2023-02-27T05:42:20.733Z,5.96
2023-02-27T05:43:20.738Z,6.26
2023-02-27T05:44:20.718Z,5.97
2023-02-27T05:45:20.727Z,5.70
2023-02-27T05:46:20.899Z,5.55
2023-02-27T05:47:20.781Z,5.72
2023-02-27T05:48:20.770Z,6.09
2023-02-27T05:49:20.777Z,5.42
2023-02-27T05:50:20.761Z,6.03
2023-02-27T05:51:20.761Z,5.92
2023-02-27T05:52:20.766Z,5.93
2023-02-27T05:53:20.730Z,5.11
2023-02-27T05:54:20.736Z,4.76
2023-02-27T05:55:20.815Z,5.76
2023-02-27T05:57:20.814Z,5.69
2023-02-27T05:58:20.798Z,5.43
2023-02-27T05:59:20.764Z,5.04
2023-02-27T06:00:20.790Z,5.68
2023-02-27T06:01:20.787Z,5.84
2023-02-27T06:02:20.804Z,5.57
2023-02-27T06:03:20.782Z,5.62
2023-02-27T06:04:20.815Z,5.92
2023-02-27T06:05:20.816Z,6.00
2023-02-27T06:06:20.814Z,5.88
2023-02-27T06:07:20.851Z,5.79
2023-02-27T06:08:20.778Z,5.37
2023-02-27T06:09:20.815Z,6.25
2023-02-27T06:10:20.855Z,5.80
2023-02-27T06:11:20.804Z,5.93
2023-02-27T06:12:20.785Z,6.15
2023-02-27T06:13:20.826Z,5.65
2023-02-27T06:14:20.814Z,6.52
2023-02-27T06:15:20.819Z,6.32
2023-02-27T06:16:20.839Z,5.22
2023-02-27T06:17:20.809Z,6.22
2023-02-27T06:18:20.831Z,4.96
2023-02-27T06:21:20.834Z,6.11
2023-02-27T06:22:20.804Z,5.78
2023-02-27T06:23:20.917Z,6.20
2023-02-27T06:25:20.830Z,6.53
2023-02-27T06:26:20.841Z,6.40
2023-02-27T06:27:20.870Z,6.29
2023-02-27T06:28:20.904Z,6.99
2023-02-27T06:29:20.829Z,5.84
2023-02-27T06:30:20.819Z,6.53
2023-02-27T06:31:20.884Z,6.51
2023-02-27T06:32:20.904Z,5.91
2023-02-27T06:33:20.865Z,6.02
2023-02-27T06:34:20.877Z,6.34
2023-02-27T06:35:20.841Z,6.19
2023-02-27T06:36:20.952Z,5.57
2023-02-27T06:37:20.895Z,6.20
2023-02-27T06:38:20.883Z,6.11
2023-02-27T06:40:20.905Z,6.21
2023-02-27T06:41:20.893Z,6.36
2023-02-27T06:42:20.912Z,6.19
2023-02-27T06:43:20.887Z,5.97
2023-02-27T06:44:20.854Z,5.90
2023-02-27T06:45:20.851Z,6.20
2023-02-27T06:46:20.915Z,6.20
2023-02-27T06:47:20.862Z,5.81
2023-02-27T06:48:20.922Z,6.08
2023-02-27T06:49:20.900Z,6.30
2023-02-27T06:50:20.856Z,6.14
2023-02-27T06:51:20.928Z,5.38
2023-02-27T06:52:20.905Z,5.86
2023-02-27T06:53:20.872Z,6.24
2023-02-27T06:54:20.974Z,5.53
2023-02-27T06:55:20.965Z,6.19
2023-02-27T06:57:20.894Z,6.45
2023-02-27T06:58:20.886Z,6.17
2023-02-27T06:59:20.904Z,6.05
2023-02-27T07:00:20.927Z,6.19
2023-02-27T07:01:20.958Z,5.95
2023-02-27T07:02:20.909Z,6.85
2023-02-27T07:03:20.934Z,6.32
2023-02-27T07:04:21.048Z,5.93
2023-02-27T07:05:20.905Z,6.30
2023-02-27T07:06:20.901Z,5.27
2023-02-27T07:07:34.214Z,6.31
2023-02-27T07:08:20.953Z,6.13
2023-02-27T07:09:20.920Z,6.18
2023-02-27T07:10:20.941Z,5.97
2023-02-27T07:11:20.944Z,6.15
2023-02-27T07:12:21.004Z,5.99
2023-02-27T07:13:20.975Z,5.87
2023-02-27T07:14:20.945Z,5.88
2023-02-27T07:15:20.928Z,6.72
2023-02-27T07:16:20.931Z,5.93
2023-02-27T07:17:20.953Z,6.75
2023-02-27T07:18:20.945Z,5.44
2023-02-27T07:19:20.940Z,6.29
2023-02-27T07:20:20.940Z,6.55
2023-02-27T07:21:20.960Z,6.35
2023-02-27T07:22:21.007Z,6.12
2023-02-27T07:23:20.965Z,5.80
2023-02-27T07:24:20.973Z,6.74
2023-02-27T07:25:20.965Z,6.44
2023-02-27T07:26:20.971Z,6.22
2023-02-27T07:27:21.059Z,6.18
2023-02-27T07:28:21.054Z,5.76
2023-02-27T07:29:20.969Z,6.62
2023-02-27T07:30:20.992Z,7.19
2023-02-27T07:31:21.033Z,6.46
2023-02-27T07:32:21.108Z,6.18
2023-02-27T07:33:20.989Z,6.19
2023-02-27T07:34:21.014Z,6.30
2023-02-27T07:35:20.974Z,6.46
2023-02-27T07:36:21.043Z,6.10
2023-02-27T07:37:21.046Z,6.36
2023-02-27T07:38:21.018Z,6.17
2023-02-27T07:39:21.043Z,5.64
2023-02-27T07:40:20.994Z,5.90
2023-02-27T07:41:29.843Z,6.36
2023-02-27T07:42:21.025Z,6.12
2023-02-27T07:43:21.052Z,7.51
2023-02-27T07:44:21.050Z,6.99
2023-02-27T07:45:21.031Z,6.01
2023-02-27T07:46:21.086Z,5.97
2023-02-27T07:47:21.017Z,5.93
2023-02-27T07:48:21.044Z,6.56
2023-02-27T07:49:21.015Z,5.85
2023-02-27T07:50:21.072Z,6.66
2023-02-27T07:51:21.015Z,5.60
2023-02-27T07:52:21.060Z,6.69
2023-02-27T07:53:21.045Z,7.31
2023-02-27T07:54:21.053Z,6.50
2023-02-27T07:55:21.062Z,6.17
2023-02-27T07:56:21.050Z,5.97
2023-02-27T07:57:21.051Z,6.30
2023-02-27T07:58:21.056Z,6.46
2023-02-27T07:59:21.099Z,6.17
2023-02-27T08:00:21.134Z,6.09
2023-02-27T08:01:21.082Z,6.70
2023-02-27T08:02:21.243Z,6.80
2023-02-27T08:03:21.091Z,5.82
2023-02-27T08:04:21.132Z,7.18
2023-02-27T08:05:21.083Z,6.09
2023-02-27T08:06:21.103Z,6.22
2023-02-27T08:07:21.064Z,7.39
2023-02-27T08:08:21.079Z,5.83
2023-02-27T08:09:21.084Z,7.06
2023-02-27T08:10:21.153Z,6.54
2023-02-27T08:11:21.064Z,6.85
2023-02-27T08:12:21.099Z,6.23
2023-02-27T08:13:42.218Z,6.92
2023-02-27T08:14:21.119Z,6.62
2023-02-27T08:15:21.122Z,6.33
2023-02-27T08:16:21.096Z,6.56
2023-02-27T08:17:21.153Z,6.99
2023-02-27T08:18:21.138Z,7.12
2023-02-27T08:19:21.084Z,6.85
2023-02-27T08:20:21.073Z,6.39
2023-02-27T08:21:21.092Z,5.75
2023-02-27T08:22:21.767Z,5.96
2023-02-27T08:23:21.134Z,6.76
2023-02-27T08:26:21.138Z,7.04
2023-02-27T08:27:21.124Z,6.34
2023-02-27T08:28:21.109Z,6.38
2023-02-27T08:29:21.103Z,7.03
2023-02-27T08:30:21.147Z,7.17
2023-02-27T08:31:21.199Z,6.89
2023-02-27T08:32:21.197Z,6.73
2023-02-27T08:33:21.151Z,7.16
2023-02-27T08:34:21.118Z,6.98
2023-02-27T08:35:21.156Z,5.71
2023-02-27T08:36:21.155Z,6.72
2023-02-27T08:37:21.151Z,6.19
2023-02-27T08:38:21.164Z,6.74
2023-02-27T08:39:21.161Z,6.06
2023-02-27T08:40:21.131Z,6.63
2023-02-27T08:41:21.146Z,6.15
2023-02-27T08:43:21.173Z,7.09
2023-02-27T08:44:21.149Z,6.54
2023-02-27T08:45:21.174Z,6.72
2023-02-27T08:46:21.185Z,6.23
2023-02-27T08:47:21.192Z,6.20
2023-02-27T08:48:21.177Z,5.61
2023-02-27T08:49:21.750Z,6.30
2023-02-27T08:52:23.450Z,6.37
2023-02-27T08:53:21.193Z,6.73
2023-02-27T08:54:21.188Z,6.20
2023-02-27T08:55:21.201Z,6.29
2023-02-27T08:56:21.245Z,6.89
2023-02-27T08:57:21.224Z,6.71
2023-02-27T08:58:21.188Z,6.61
2023-02-27T08:59:21.185Z,6.23
2023-02-27T09:00:21.217Z,6.21
2023-02-27T09:01:21.170Z,6.12
2023-02-27T09:02:21.216Z,6.49
2023-02-27T09:03:21.269Z,6.17
2023-02-27T09:04:21.239Z,6.14
2023-02-27T09:06:21.242Z,6.90
2023-02-27T09:07:21.247Z,6.05
2023-02-27T09:08:21.195Z,6.60
2023-02-27T09:09:21.240Z,6.25
2023-02-27T09:10:21.235Z,6.31
2023-02-27T09:11:21.242Z,6.32
2023-02-27T09:13:21.260Z,6.78
2023-02-27T09:14:21.217Z,7.23
2023-02-27T09:15:21.209Z,6.74
2023-02-27T09:16:21.299Z,6.16
2023-02-27T09:17:21.221Z,6.52
2023-02-27T09:18:21.259Z,6.26
2023-02-27T09:19:21.259Z,5.90
2023-02-27T09:20:21.272Z,6.76
2023-02-27T09:21:21.300Z,5.79
2023-02-27T09:22:21.297Z,6.61
2023-02-27T09:23:21.313Z,6.40
2023-02-27T09:24:21.264Z,6.04
2023-02-27T09:25:21.263Z,7.04
2023-02-27T09:26:28.954Z,6.80
2023-02-27T09:27:21.246Z,6.51
2023-02-27T09:28:21.262Z,6.18
2023-02-27T09:29:21.357Z,6.17
2023-02-27T09:30:21.276Z,6.61
2023-02-27T09:31:21.330Z,6.92
2023-02-27T09:33:21.301Z,6.68
2023-02-27T09:34:21.309Z,6.25
2023-02-27T09:35:21.326Z,6.38
2023-02-27T09:36:21.306Z,6.50
2023-02-27T09:37:21.309Z,6.86
2023-02-27T09:38:21.260Z,6.35
2023-02-27T09:39:21.292Z,6.59
2023-02-27T09:40:21.351Z,6.56
2023-02-27T09:41:21.273Z,6.64
2023-02-27T09:42:21.337Z,6.99
2023-02-27T09:43:21.316Z,6.42
2023-02-27T09:44:30.644Z,6.89
2023-02-27T09:45:21.354Z,6.75
2023-02-27T09:46:21.426Z,6.79
2023-02-27T09:47:21.349Z,6.72
2023-02-27T09:48:21.320Z,7.37
2023-02-27T09:49:21.336Z,6.65
2023-02-27T09:50:21.372Z,7.31
2023-02-27T09:51:21.328Z,7.56
2023-02-27T09:52:21.370Z,6.88
2023-02-27T09:53:21.330Z,6.85
2023-02-27T09:54:21.294Z,7.11
2023-02-27T09:55:21.311Z,6.78
2023-02-27T09:56:21.308Z,6.96
2023-02-27T09:57:21.376Z,7.04
2023-02-27T09:58:21.382Z,7.28
2023-02-27T09:59:21.314Z,7.01
2023-02-27T10:00:21.414Z,6.68
2023-02-27T10:01:21.333Z,7.32
2023-02-27T10:02:21.361Z,7.30
2023-02-27T10:03:21.410Z,7.23
2023-02-27T10:04:21.376Z,6.69
2023-02-27T10:05:21.330Z,7.20
2023-02-27T10:06:21.342Z,7.63
2023-02-27T10:07:21.388Z,6.78
2023-02-27T10:08:21.353Z,7.76
2023-02-27T10:09:21.346Z,6.49
2023-02-27T10:10:21.362Z,7.65
2023-02-27T10:11:21.383Z,7.24
2023-02-27T10:12:21.400Z,7.41
2023-02-27T10:13:21.386Z,7.19
2023-02-27T10:14:21.386Z,7.23
2023-02-27T10:15:21.420Z,7.81
2023-02-27T10:16:21.475Z,6.67
2023-02-27T10:17:21.412Z,7.94
2023-02-27T10:18:28.308Z,7.02
2023-02-27T10:19:21.391Z,7.73
2023-02-27T10:20:21.395Z,7.02
2023-02-27T10:22:21.426Z,8.07
2023-02-27T10:23:21.481Z,7.16
2023-02-27T10:24:21.382Z,6.83
2023-02-27T10:25:31.196Z,6.90
2023-02-27T10:26:21.426Z,7.83
2023-02-27T10:27:21.412Z,6.68
2023-02-27T10:28:21.422Z,7.26
2023-02-27T10:29:21.400Z,6.97
2023-02-27T10:30:29.192Z,8.05
2023-02-27T10:31:21.513Z,6.91
2023-02-27T10:32:21.539Z,7.19
2023-02-27T10:33:21.458Z,7.08
2023-02-27T10:34:21.446Z,7.16
2023-02-27T10:35:21.443Z,7.35
2023-02-27T10:36:32.974Z,6.78
2023-02-27T10:37:21.515Z,7.49
2023-02-27T10:38:21.460Z,7.56
2023-02-27T10:39:21.429Z,7.48
2023-02-27T10:40:21.448Z,7.17
2023-02-27T10:41:21.434Z,7.47
2023-02-27T10:42:21.417Z,7.66
2023-02-27T10:43:21.425Z,7.72
2023-02-27T10:44:21.424Z,7.51
2023-02-27T10:45:21.448Z,7.97
2023-02-27T10:46:21.522Z,7.21
2023-02-27T10:47:21.483Z,7.75
2023-02-27T10:48:21.493Z,8.23
2023-02-27T10:49:21.504Z,7.26
2023-02-27T10:50:21.479Z,7.02
2023-02-27T10:51:21.497Z,7.84
2023-02-27T10:52:21.493Z,7.99
2023-02-27T10:53:21.514Z,7.82
2023-02-27T10:54:21.505Z,8.03
2023-02-27T10:55:21.498Z,7.47
2023-02-27T10:56:21.443Z,6.92
2023-02-27T10:57:21.488Z,7.62
2023-02-27T10:58:21.536Z,8.91
2023-02-27T10:59:21.517Z,7.83
2023-02-27T11:00:21.476Z,7.53
2023-02-27T11:01:21.519Z,7.88
2023-02-27T11:02:21.527Z,7.66
2023-02-27T11:03:21.514Z,7.29
2023-02-27T11:04:21.503Z,8.09
2023-02-27T11:05:21.483Z,7.78
2023-02-27T11:06:21.497Z,7.48
2023-02-27T11:07:21.530Z,7.54
2023-02-27T11:08:21.509Z,7.42
2023-02-27T11:09:21.480Z,8.09
2023-02-27T11:10:21.516Z,7.52
2023-02-27T11:11:21.503Z,7.92
2023-02-27T11:12:21.518Z,7.58
2023-02-27T11:13:21.592Z,7.70
2023-02-27T11:14:21.498Z,7.36
2023-02-27T11:15:21.514Z,7.77
2023-02-27T11:16:21.489Z,7.62
2023-02-27T11:17:21.484Z,8.77
2023-02-27T11:18:21.514Z,8.43
2023-02-27T11:19:21.557Z,8.22
2023-02-27T11:20:21.516Z,7.88
2023-02-27T11:21:21.557Z,7.27
2023-02-27T11:22:21.520Z,7.31
2023-02-27T11:23:21.514Z,8.25
2023-02-27T11:24:21.548Z,7.86
2023-02-27T11:25:21.670Z,7.11
2023-02-27T11:26:21.509Z,8.66
2023-02-27T11:27:21.546Z,7.43
2023-02-27T11:28:21.551Z,8.69
2023-02-27T11:30:21.576Z,7.86
2023-02-27T11:31:21.598Z,7.47
2023-02-27T11:33:21.548Z,7.22
2023-02-27T11:34:21.559Z,7.11
2023-02-27T11:35:21.559Z,6.93
2023-02-27T11:36:21.634Z,7.54
2023-02-27T11:37:21.567Z,7.14
2023-02-27T11:38:21.564Z,7.02
2023-02-27T11:39:21.555Z,7.15
2023-02-27T11:40:21.561Z,7.74
2023-02-27T11:41:21.605Z,7.69
2023-02-27T11:42:21.566Z,7.56
2023-02-27T11:43:21.570Z,7.15
2023-02-27T11:44:34.115Z,7.63
2023-02-27T11:46:04.290Z,7.25
2023-02-27T11:46:46.871Z,7.23
2023-02-27T11:47:21.596Z,7.32
2023-02-27T11:48:21.579Z,8.13
2023-02-27T11:49:21.598Z,7.14
2023-02-27T11:50:21.628Z,7.07
2023-02-27T11:51:21.647Z,7.31
2023-02-27T11:53:21.589Z,7.61
2023-02-27T11:54:21.632Z,7.29
2023-02-27T11:55:21.618Z,7.32
2023-02-27T11:56:21.671Z,7.57
2023-02-27T11:57:21.642Z,6.45
2023-02-27T11:58:21.601Z,7.14
2023-02-27T11:59:21.693Z,7.54
2023-02-27T12:00:21.596Z,7.90
2023-02-27T12:01:21.616Z,7.00
2023-02-27T12:02:21.696Z,6.94
2023-02-27T12:03:21.665Z,7.36
2023-02-27T12:04:21.756Z,7.64
2023-02-27T12:05:21.626Z,8.00
2023-02-27T12:06:21.631Z,7.62
2023-02-27T12:07:21.635Z,7.37
2023-02-27T12:08:21.649Z,7.13
2023-02-27T12:09:21.645Z,7.38
2023-02-27T12:10:21.617Z,7.50
2023-02-27T12:11:21.642Z,7.40
2023-02-27T12:12:21.640Z,6.92
2023-02-27T12:13:21.643Z,7.46
2023-02-27T12:14:21.746Z,7.76
2023-02-27T12:15:21.637Z,7.84
2023-02-27T12:16:21.796Z,7.93
2023-02-27T12:17:21.718Z,8.26
2023-02-27T12:18:21.645Z,7.03
2023-02-27T12:19:21.645Z,7.08
2023-02-27T12:20:21.696Z,7.35
2023-02-27T12:21:21.696Z,7.28
2023-02-27T12:22:21.683Z,6.89
2023-02-27T12:23:21.709Z,7.55
2023-02-27T12:24:21.653Z,7.97
2023-02-27T12:25:21.657Z,6.80
2023-02-27T12:26:21.678Z,6.91
2023-02-27T12:27:21.676Z,7.46
2023-02-27T12:28:21.664Z,7.14
2023-02-27T12:29:21.707Z,7.78
2023-02-27T12:30:21.673Z,7.80
2023-02-27T12:31:21.756Z,7.47
2023-02-27T12:32:21.775Z,7.93
2023-02-27T12:33:21.662Z,8.06
2023-02-27T12:34:21.731Z,7.67
2023-02-27T12:35:21.692Z,7.83
2023-02-27T12:36:21.700Z,7.99
2023-02-27T12:37:21.724Z,7.75
2023-02-27T12:38:21.725Z,7.96
2023-02-27T12:39:21.700Z,8.23
2023-02-27T12:40:21.718Z,7.48
2023-02-27T12:41:21.705Z,7.57
2023-02-27T12:42:21.708Z,7.51
2023-02-27T12:43:21.708Z,6.93
2023-02-27T12:44:21.756Z,7.35
2023-02-27T12:45:21.701Z,6.46
2023-02-27T12:46:21.732Z,7.01
2023-02-27T12:47:21.767Z,7.51
2023-02-27T12:48:21.706Z,7.16
2023-02-27T12:49:21.693Z,7.52
2023-02-27T12:50:21.713Z,7.83
2023-02-27T12:51:21.712Z,7.55
2023-02-27T12:52:21.726Z,7.40
2023-02-27T12:53:21.749Z,7.34
2023-02-27T12:54:21.719Z,6.99
2023-02-27T12:55:21.801Z,6.96
2023-02-27T12:56:21.774Z,7.75
2023-02-27T12:57:21.747Z,7.30
2023-02-27T12:58:21.775Z,7.15
2023-02-27T12:59:21.740Z,8.39
2023-02-27T13:00:21.799Z,7.58
2023-02-27T13:01:21.804Z,7.42
2023-02-27T13:02:21.751Z,7.32
2023-02-27T13:03:21.744Z,7.63
2023-02-27T13:05:21.790Z,8.09
2023-02-27T13:06:21.844Z,7.33
2023-02-27T13:07:21.775Z,7.70
2023-02-27T13:08:21.758Z,8.10
2023-02-27T13:09:21.749Z,8.05
2023-02-27T13:10:21.785Z,8.15
2023-02-27T13:11:21.819Z,7.69
2023-02-27T13:12:21.784Z,8.30
2023-02-27T13:13:21.771Z,7.61
2023-02-27T13:14:21.782Z,8.29
2023-02-27T13:15:21.808Z,8.54
2023-02-27T13:16:21.828Z,8.57
2023-02-27T13:17:21.768Z,8.44
2023-02-27T13:18:23.577Z,8.84
2023-02-27T13:19:21.836Z,8.35
2023-02-27T13:20:21.786Z,9.01
2023-02-27T13:21:21.831Z,8.30
2023-02-27T13:22:21.806Z,9.01
2023-02-27T13:23:21.840Z,9.24
2023-02-27T13:24:24.084Z,8.52
2023-02-27T13:25:21.826Z,8.93
2023-02-27T13:26:21.823Z,9.68
2023-02-27T13:27:21.857Z,8.49
2023-02-27T13:28:21.863Z,8.94
2023-02-27T13:29:21.849Z,9.02
2023-02-27T13:30:21.799Z,8.51
2023-02-27T13:31:21.925Z,8.97
2023-02-27T13:33:21.917Z,9.25
2023-02-27T13:34:21.855Z,9.94
2023-02-27T13:35:21.834Z,9.28
2023-02-27T13:36:24.254Z,8.25
2023-02-27T13:37:21.929Z,9.30
2023-02-27T13:38:21.832Z,9.25
2023-02-27T13:39:21.861Z,8.75
2023-02-27T13:40:21.865Z,8.98
2023-02-27T13:41:21.839Z,8.80
2023-02-27T13:42:21.875Z,8.82
2023-02-27T13:43:21.894Z,9.50
2023-02-27T13:44:21.883Z,8.63
2023-02-27T13:45:21.880Z,8.28
2023-02-27T13:46:22.041Z,9.42
2023-02-27T13:47:21.884Z,7.49
2023-02-27T13:48:21.891Z,8.66
2023-02-27T13:49:28.817Z,8.07
2023-02-27T13:50:21.881Z,8.78
2023-02-27T13:51:21.907Z,9.22
2023-02-27T13:52:21.913Z,9.24
2023-02-27T13:53:21.890Z,8.59
2023-02-27T13:54:21.946Z,8.28
2023-02-27T13:55:21.862Z,8.77
2023-02-27T13:56:21.866Z,9.08